This is the latest recevied weather packets stored in our database for station/object KC1OEK-13. If no packets are shown the sender has not sent any weather packets the latest 10 day(s).
| Time | Temp. | Humidity | Pressure | Rain* | Wind** | Luminosity | Snow |
|---|---|---|---|---|---|---|---|
| 1787526158 | 23.33° C | 84% | 1011.7 hPa | 0 mm | - | 25 W/m² | - |
| 1787525853 | 23.89° C | 84% | 1011.6 hPa | 0 mm | - | 28 W/m² | - |
| 1787525549 | 23.89° C | 84% | 1011.6 hPa | 0 mm | - | 31 W/m² | - |
| 1787525243 | 25° C | 82% | 1011.6 hPa | 0 mm | - | 34 W/m² | - |
| 1787524941 | 25.56° C | 79% | 1011.4 hPa | 0 mm | - | 37 W/m² | - |
| 1787524634 | 25.56° C | 78% | 1011.2 hPa | 0 mm | - | 65 W/m² | - |
| 1787524330 | 25.56° C | 79% | 1011.4 hPa | 0 mm | - | 75 W/m² | - |
| 1787524025 | 25.56° C | 79% | 1011.4 hPa | 0 mm | - | 86 W/m² | - |
| 1787523721 | 26.11° C | 78% | 1011.3 hPa | 0 mm | - | 99 W/m² | - |
| 1787523420 | 25.56° C | 80% | 1011.4 hPa | 0 mm | - | 72 W/m² | - |
| 1787523116 | 25.56° C | 80% | 1011.3 hPa | 0 mm | - | 48 W/m² | - |
| 1787522812 | 25.56° C | 81% | 1011.3 hPa | 0 mm | - | 90 W/m² | - |
| 1787522508 | 25.56° C | 79% | 1011.1 hPa | 0 mm | - | 148 W/m² | - |
| 1787522197 | 25.56° C | 78% | 1011.2 hPa | 0 mm | - | 110 W/m² | - |
| 1787521897 | 26.11° C | 76% | 1011.1 hPa | 0 mm | - | 54 W/m² | - |
| 1787521596 | 25.56° C | 78% | 1011.1 hPa | 0 mm | - | 155 W/m² | - |
| 1787521295 | 25.56° C | 78% | 1011 hPa | 0 mm | - | 104 W/m² | - |
| 1787520990 | 26.11° C | 78% | 1011 hPa | 0 mm | - | 71 W/m² | - |
| 1787520686 | 25.56° C | 78% | 1011 hPa | 0 mm | - | 69 W/m² | - |
| 1787520381 | 25.56° C | 76% | 1010.9 hPa | 0 mm | - | 85 W/m² | - |
| 1787520078 | 26.11° C | 76% | 1010.9 hPa | 0 mm | - | 88 W/m² | - |
| 1787519777 | 27.22° C | 72% | 1010.6 hPa | 0 mm | - | 382 W/m² | - |
| 1787519473 | 27.22° C | 73% | 1010.8 hPa | 0 mm | - | 361 W/m² | - |
| 1787519167 | 26.67° C | 76% | 1010.8 hPa | 0 mm | - | 403 W/m² | - |
| 1787518863 | 26.67° C | 75% | 1010.8 hPa | 0 mm | - | 258 W/m² | - |
* Rain latest hour (hover to see other rain measurements)
** Current wind speed in m/s (hover to see current wind gust speed)